sensor_id;sensor_type;location;lat;lon;timestamp;temperature;humidity
49236;DHT22;35067;48.134;8.378;2023-04-24T00:00:46;9.50;98.40
49236;DHT22;35067;48.134;8.378;2023-04-24T00:01:48;9.50;98.20
49236;DHT22;35067;48.134;8.378;2023-04-24T00:02:50;9.50;98.30
49236;DHT22;35067;48.134;8.378;2023-04-24T00:03:51;9.50;98.40
49236;DHT22;35067;48.134;8.378;2023-04-24T00:04:52;9.50;98.90
49236;DHT22;35067;48.134;8.378;2023-04-24T00:05:54;9.50;98.70
49236;DHT22;35067;48.134;8.378;2023-04-24T00:06:59;9.60;98.60
49236;DHT22;35067;48.134;8.378;2023-04-24T00:08:00;9.50;98.60
49236;DHT22;35067;48.134;8.378;2023-04-24T00:09:01;9.60;98.70
49236;DHT22;35067;48.134;8.378;2023-04-24T00:10:03;9.60;98.60
49236;DHT22;35067;48.134;8.378;2023-04-24T00:11:07;9.50;98.40
49236;DHT22;35067;48.134;8.378;2023-04-24T00:12:09;9.50;98.60
49236;DHT22;35067;48.134;8.378;2023-04-24T00:13:10;9.60;98.40
49236;DHT22;35067;48.134;8.378;2023-04-24T00:14:11;9.60;98.30
49236;DHT22;35067;48.134;8.378;2023-04-24T00:15:12;9.50;98.10
49236;DHT22;35067;48.134;8.378;2023-04-24T00:16:14;9.50;98.30
49236;DHT22;35067;48.134;8.378;2023-04-24T00:17:15;9.50;98.40
49236;DHT22;35067;48.134;8.378;2023-04-24T00:18:16;9.40;98.60
49236;DHT22;35067;48.134;8.378;2023-04-24T00:19:17;9.30;98.70
49236;DHT22;35067;48.134;8.378;2023-04-24T00:20:17;9.20;99.00
49236;DHT22;35067;48.134;8.378;2023-04-24T00:21:19;9.20;99.20
49236;DHT22;35067;48.134;8.378;2023-04-24T00:22:20;9.20;99.40
49236;DHT22;35067;48.134;8.378;2023-04-24T00:23:21;9.40;99.30
49236;DHT22;35067;48.134;8.378;2023-04-24T00:24:23;9.40;99.10
49236;DHT22;35067;48.134;8.378;2023-04-24T00:25:23;9.50;98.80
49236;DHT22;35067;48.134;8.378;2023-04-24T00:26:24;9.50;98.70
49236;DHT22;35067;48.134;8.378;2023-04-24T00:27:25;9.50;98.70
49236;DHT22;35067;48.134;8.378;2023-04-24T00:28:27;9.60;98.70
49236;DHT22;35067;48.134;8.378;2023-04-24T00:29:29;9.50;98.60
49236;DHT22;35067;48.134;8.378;2023-04-24T00:30:30;9.50;98.60
49236;DHT22;35067;48.134;8.378;2023-04-24T00:31:31;9.60;98.60
49236;DHT22;35067;48.134;8.378;2023-04-24T00:32:35;9.50;98.70
49236;DHT22;35067;48.134;8.378;2023-04-24T00:33:36;9.60;98.70
49236;DHT22;35067;48.134;8.378;2023-04-24T00:34:38;9.60;98.60
49236;DHT22;35067;48.134;8.378;2023-04-24T00:35:40;9.60;98.60
49236;DHT22;35067;48.134;8.378;2023-04-24T00:36:41;9.50;98.90
49236;DHT22;35067;48.134;8.378;2023-04-24T00:37:43;9.40;99.10
49236;DHT22;35067;48.134;8.378;2023-04-24T00:38:46;9.40;99.20
49236;DHT22;35067;48.134;8.378;2023-04-24T00:39:47;9.30;99.60
49236;DHT22;35067;48.134;8.378;2023-04-24T00:40:48;9.30;99.80
49236;DHT22;35067;48.134;8.378;2023-04-24T00:41:51;9.30;99.90
49236;DHT22;35067;48.134;8.378;2023-04-24T00:42:52;9.40;99.90
49236;DHT22;35067;48.134;8.378;2023-04-24T00:43:53;9.40;99.70
49236;DHT22;35067;48.134;8.378;2023-04-24T00:44:54;9.40;99.50
49236;DHT22;35067;48.134;8.378;2023-04-24T00:45:57;9.40;99.30
49236;DHT22;35067;48.134;8.378;2023-04-24T00:47:01;9.50;99.40
49236;DHT22;35067;48.134;8.378;2023-04-24T00:48:04;9.40;99.40
49236;DHT22;35067;48.134;8.378;2023-04-24T00:49:06;9.40;99.10
49236;DHT22;35067;48.134;8.378;2023-04-24T00:50:07;9.50;99.30
49236;DHT22;35067;48.134;8.378;2023-04-24T00:51:08;9.40;99.50
49236;DHT22;35067;48.134;8.378;2023-04-24T00:52:09;9.40;99.60
49236;DHT22;35067;48.134;8.378;2023-04-24T00:53:11;9.30;99.90
49236;DHT22;35067;48.134;8.378;2023-04-24T00:54:13;9.30;99.90
49236;DHT22;35067;48.134;8.378;2023-04-24T00:55:14;9.40;99.90
49236;DHT22;35067;48.134;8.378;2023-04-24T00:56:15;9.40;99.90
49236;DHT22;35067;48.134;8.378;2023-04-24T00:57:16;9.40;99.90
49236;DHT22;35067;48.134;8.378;2023-04-24T00:58:18;9.30;99.90
49236;DHT22;35067;48.134;8.378;2023-04-24T00:59:18;9.20;99.90
49236;DHT22;35067;48.134;8.378;2023-04-24T01:00:21;9.10;99.90
49236;DHT22;35067;48.134;8.378;2023-04-24T01:01:22;9.10;99.90
49236;DHT22;35067;48.134;8.378;2023-04-24T01:02:23;9.10;99.90
49236;DHT22;35067;48.134;8.378;2023-04-24T01:03:29;9.20;99.90
49236;DHT22;35067;48.134;8.378;2023-04-24T01:04:32;9.20;99.90
49236;DHT22;35067;48.134;8.378;2023-04-24T01:05:33;9.20;99.90
49236;DHT22;35067;48.134;8.378;2023-04-24T01:06:38;9.10;99.90
49236;DHT22;35067;48.134;8.378;2023-04-24T01:07:40;9.10;99.90
49236;DHT22;35067;48.134;8.378;2023-04-24T01:08:46;9.20;99.90
49236;DHT22;35067;48.134;8.378;2023-04-24T01:09:48;9.20;99.90
49236;DHT22;35067;48.134;8.378;2023-04-24T01:10:52;9.10;99.90
49236;DHT22;35067;48.134;8.378;2023-04-24T01:11:53;9.20;99.90
49236;DHT22;35067;48.134;8.378;2023-04-24T01:12:55;9.10;99.90
49236;DHT22;35067;48.134;8.378;2023-04-24T01:13:57;9.10;99.90
49236;DHT22;35067;48.134;8.378;2023-04-24T01:14:59;9.10;99.90
49236;DHT22;35067;48.134;8.378;2023-04-24T01:16:02;9.10;99.90
49236;DHT22;35067;48.134;8.378;2023-04-24T01:17:04;9.10;99.90
49236;DHT22;35067;48.134;8.378;2023-04-24T01:18:04;9.00;99.90
49236;DHT22;35067;48.134;8.378;2023-04-24T01:19:06;9.00;99.90
49236;DHT22;35067;48.134;8.378;2023-04-24T01:20:09;9.00;99.90
49236;DHT22;35067;48.134;8.378;2023-04-24T01:21:13;9.10;99.90
49236;DHT22;35067;48.134;8.378;2023-04-24T01:22:18;9.10;99.90
49236;DHT22;35067;48.134;8.378;2023-04-24T01:23:19;9.00;99.90
49236;DHT22;35067;48.134;8.378;2023-04-24T01:24:20;9.10;99.90
49236;DHT22;35067;48.134;8.378;2023-04-24T01:25:22;9.10;99.90
49236;DHT22;35067;48.134;8.378;2023-04-24T01:26:23;9.10;99.90
49236;DHT22;35067;48.134;8.378;2023-04-24T01:27:25;9.20;99.90
49236;DHT22;35067;48.134;8.378;2023-04-24T01:28:27;9.30;99.90
49236;DHT22;35067;48.134;8.378;2023-04-24T01:29:28;9.30;99.90
49236;DHT22;35067;48.134;8.378;2023-04-24T01:30:31;9.20;99.90
49236;DHT22;35067;48.134;8.378;2023-04-24T01:31:32;9.20;99.90
49236;DHT22;35067;48.134;8.378;2023-04-24T01:32:33;9.20;99.90
49236;DHT22;35067;48.134;8.378;2023-04-24T01:33:34;9.20;99.90
49236;DHT22;35067;48.134;8.378;2023-04-24T01:34:38;9.10;99.90
49236;DHT22;35067;48.134;8.378;2023-04-24T01:35:39;9.10;99.90
49236;DHT22;35067;48.134;8.378;2023-04-24T01:36:45;9.10;99.90
49236;DHT22;35067;48.134;8.378;2023-04-24T01:37:46;9.10;99.90
49236;DHT22;35067;48.134;8.378;2023-04-24T01:38:48;9.00;99.90
49236;DHT22;35067;48.134;8.378;2023-04-24T01:39:49;9.00;99.90
49236;DHT22;35067;48.134;8.378;2023-04-24T01:40:50;8.90;99.90
49236;DHT22;35067;48.134;8.378;2023-04-24T01:41:52;8.80;99.90
49236;DHT22;35067;48.134;8.378;2023-04-24T01:42:53;8.80;99.90
49236;DHT22;35067;48.134;8.378;2023-04-24T01:43:54;8.70;99.90
49236;DHT22;35067;48.134;8.378;2023-04-24T01:44:55;8.70;99.90
49236;DHT22;35067;48.134;8.378;2023-04-24T01:45:56;8.70;99.90
49236;DHT22;35067;48.134;8.378;2023-04-24T01:46:56;8.70;99.90
49236;DHT22;35067;48.134;8.378;2023-04-24T01:47:58;8.70;99.90
49236;DHT22;35067;48.134;8.378;2023-04-24T01:49:01;8.60;99.90
49236;DHT22;35067;48.134;8.378;2023-04-24T01:50:03;8.50;99.90
49236;DHT22;35067;48.134;8.378;2023-04-24T01:51:05;8.50;99.90
49236;DHT22;35067;48.134;8.378;2023-04-24T01:52:06;8.50;99.90
49236;DHT22;35067;48.134;8.378;2023-04-24T01:53:06;8.50;99.90
49236;DHT22;35067;48.134;8.378;2023-04-24T01:54:10;8.40;99.90
49236;DHT22;35067;48.134;8.378;2023-04-24T01:55:10;8.40;99.90
49236;DHT22;35067;48.134;8.378;2023-04-24T01:56:14;8.30;99.90
49236;DHT22;35067;48.134;8.378;2023-04-24T01:57:14;8.30;99.90
49236;DHT22;35067;48.134;8.378;2023-04-24T01:58:16;8.30;99.90
49236;DHT22;35067;48.134;8.378;2023-04-24T01:59:17;8.30;99.90
49236;DHT22;35067;48.134;8.378;2023-04-24T02:00:20;8.20;99.90
49236;DHT22;35067;48.134;8.378;2023-04-24T02:01:25;8.20;99.90
49236;DHT22;35067;48.134;8.378;2023-04-24T02:02:25;8.30;99.90
49236;DHT22;35067;48.134;8.378;2023-04-24T02:03:30;8.30;99.90
49236;DHT22;35067;48.134;8.378;2023-04-24T02:04:30;8.30;99.90
49236;DHT22;35067;48.134;8.378;2023-04-24T02:05:33;8.30;99.90
49236;DHT22;35067;48.134;8.378;2023-04-24T02:06:35;8.40;99.90
49236;DHT22;35067;48.134;8.378;2023-04-24T02:07:36;8.30;99.90
49236;DHT22;35067;48.134;8.378;2023-04-24T02:08:39;8.40;99.90
49236;DHT22;35067;48.134;8.378;2023-04-24T02:09:40;8.30;99.90
49236;DHT22;35067;48.134;8.378;2023-04-24T02:10:41;8.30;99.90
49236;DHT22;35067;48.134;8.378;2023-04-24T02:11:42;8.30;99.90
49236;DHT22;35067;48.134;8.378;2023-04-24T02:12:42;8.30;99.90
49236;DHT22;35067;48.134;8.378;2023-04-24T02:13:44;8.20;99.90
49236;DHT22;35067;48.134;8.378;2023-04-24T02:14:45;8.20;99.90
49236;DHT22;35067;48.134;8.378;2023-04-24T02:15:46;8.30;99.90
49236;DHT22;35067;48.134;8.378;2023-04-24T02:16:47;8.20;99.90
49236;DHT22;35067;48.134;8.378;2023-04-24T02:17:47;8.30;99.90
49236;DHT22;35067;48.134;8.378;2023-04-24T02:18:48;8.30;99.90
49236;DHT22;35067;48.134;8.378;2023-04-24T02:19:49;8.40;99.90
49236;DHT22;35067;48.134;8.378;2023-04-24T02:20:49;8.30;99.90
49236;DHT22;35067;48.134;8.378;2023-04-24T02:21:52;8.20;99.90
49236;DHT22;35067;48.134;8.378;2023-04-24T02:22:53;8.20;99.90
49236;DHT22;35067;48.134;8.378;2023-04-24T02:23:54;8.20;99.90
49236;DHT22;35067;48.134;8.378;2023-04-24T02:24:55;8.10;99.90
49236;DHT22;35067;48.134;8.378;2023-04-24T02:25:56;8.10;99.90
49236;DHT22;35067;48.134;8.378;2023-04-24T02:26:57;8.10;99.90
49236;DHT22;35067;48.134;8.378;2023-04-24T02:27:58;8.10;99.90
49236;DHT22;35067;48.134;8.378;2023-04-24T02:28:59;8.10;99.90
49236;DHT22;35067;48.134;8.378;2023-04-24T02:30:00;8.00;99.90
49236;DHT22;35067;48.134;8.378;2023-04-24T02:31:02;8.10;99.90
49236;DHT22;35067;48.134;8.378;2023-04-24T02:32:03;8.10;99.90
49236;DHT22;35067;48.134;8.378;2023-04-24T02:33:03;8.20;99.90
49236;DHT22;35067;48.134;8.378;2023-04-24T02:34:04;8.20;99.90
49236;DHT22;35067;48.134;8.378;2023-04-24T02:35:06;8.20;99.90
49236;DHT22;35067;48.134;8.378;2023-04-24T02:36:07;8.20;99.90
49236;DHT22;35067;48.134;8.378;2023-04-24T02:37:08;8.20;99.90
49236;DHT22;35067;48.134;8.378;2023-04-24T02:38:08;8.20;99.90
49236;DHT22;35067;48.134;8.378;2023-04-24T02:39:09;8.20;99.90
49236;DHT22;35067;48.134;8.378;2023-04-24T02:40:10;8.20;99.90
49236;DHT22;35067;48.134;8.378;2023-04-24T02:41:10;8.20;99.90
49236;DHT22;35067;48.134;8.378;2023-04-24T02:42:12;8.20;99.90
49236;DHT22;35067;48.134;8.378;2023-04-24T02:43:12;8.20;99.90
49236;DHT22;35067;48.134;8.378;2023-04-24T02:44:14;8.20;99.90
49236;DHT22;35067;48.134;8.378;2023-04-24T02:45:14;8.30;99.90
49236;DHT22;35067;48.134;8.378;2023-04-24T02:46:18;8.20;99.90
49236;DHT22;35067;48.134;8.378;2023-04-24T02:47:20;8.20;99.90
49236;DHT22;35067;48.134;8.378;2023-04-24T02:48:21;8.30;99.90
49236;DHT22;35067;48.134;8.378;2023-04-24T02:49:22;8.40;99.90
49236;DHT22;35067;48.134;8.378;2023-04-24T02:50:23;8.30;99.90
49236;DHT22;35067;48.134;8.378;2023-04-24T02:51:23;8.40;99.90
49236;DHT22;35067;48.134;8.378;2023-04-24T02:52:25;8.30;99.90
49236;DHT22;35067;48.134;8.378;2023-04-24T02:53:26;8.30;99.90
49236;DHT22;35067;48.134;8.378;2023-04-24T02:54:30;8.30;99.90
49236;DHT22;35067;48.134;8.378;2023-04-24T02:55:30;8.10;99.90
49236;DHT22;35067;48.134;8.378;2023-04-24T02:56:31;8.20;99.90
49236;DHT22;35067;48.134;8.378;2023-04-24T02:57:33;8.10;99.90
49236;DHT22;35067;48.134;8.378;2023-04-24T02:58:34;8.00;99.90
49236;DHT22;35067;48.134;8.378;2023-04-24T02:59:35;8.00;99.90
49236;DHT22;35067;48.134;8.378;2023-04-24T03:00:36;8.00;99.90
49236;DHT22;35067;48.134;8.378;2023-04-24T03:01:37;8.00;99.90
49236;DHT22;35067;48.134;8.378;2023-04-24T03:02:39;8.00;99.90
49236;DHT22;35067;48.134;8.378;2023-04-24T03:03:40;8.00;99.90
49236;DHT22;35067;48.134;8.378;2023-04-24T03:04:41;8.10;99.90
49236;DHT22;35067;48.134;8.378;2023-04-24T03:05:43;8.00;99.90
49236;DHT22;35067;48.134;8.378;2023-04-24T03:06:44;7.90;99.90
49236;DHT22;35067;48.134;8.378;2023-04-24T03:07:45;7.90;99.90
49236;DHT22;35067;48.134;8.378;2023-04-24T03:08:46;7.90;99.90
49236;DHT22;35067;48.134;8.378;2023-04-24T03:09:47;7.90;99.90
49236;DHT22;35067;48.134;8.378;2023-04-24T03:10:48;7.90;99.90
49236;DHT22;35067;48.134;8.378;2023-04-24T03:11:49;7.90;99.90
49236;DHT22;35067;48.134;8.378;2023-04-24T03:12:50;8.00;99.90
49236;DHT22;35067;48.134;8.378;2023-04-24T03:13:50;8.10;99.90
49236;DHT22;35067;48.134;8.378;2023-04-24T03:14:53;8.10;99.90
49236;DHT22;35067;48.134;8.378;2023-04-24T03:15:54;8.10;99.90
49236;DHT22;35067;48.134;8.378;2023-04-24T03:16:55;8.10;99.90
49236;DHT22;35067;48.134;8.378;2023-04-24T03:17:56;8.10;99.90
49236;DHT22;35067;48.134;8.378;2023-04-24T03:18:59;8.10;99.90
49236;DHT22;35067;48.134;8.378;2023-04-24T03:19:59;8.00;99.90
49236;DHT22;35067;48.134;8.378;2023-04-24T03:21:01;8.00;99.90
49236;DHT22;35067;48.134;8.378;2023-04-24T03:22:02;8.00;99.90
49236;DHT22;35067;48.134;8.378;2023-04-24T03:23:03;7.90;99.90
49236;DHT22;35067;48.134;8.378;2023-04-24T03:24:08;8.00;99.90
49236;DHT22;35067;48.134;8.378;2023-04-24T03:25:10;7.90;99.90
49236;DHT22;35067;48.134;8.378;2023-04-24T03:26:11;7.90;99.90
49236;DHT22;35067;48.134;8.378;2023-04-24T03:27:13;7.90;99.90
49236;DHT22;35067;48.134;8.378;2023-04-24T03:28:15;7.90;99.90
49236;DHT22;35067;48.134;8.378;2023-04-24T03:29:16;7.90;99.90
49236;DHT22;35067;48.134;8.378;2023-04-24T03:30:17;7.90;99.90
49236;DHT22;35067;48.134;8.378;2023-04-24T03:31:19;8.00;99.90
49236;DHT22;35067;48.134;8.378;2023-04-24T03:32:22;8.00;99.90
49236;DHT22;35067;48.134;8.378;2023-04-24T03:33:23;8.10;99.90
49236;DHT22;35067;48.134;8.378;2023-04-24T03:34:24;8.20;99.90
49236;DHT22;35067;48.134;8.378;2023-04-24T03:35:24;8.20;99.90
49236;DHT22;35067;48.134;8.378;2023-04-24T03:36:26;8.20;99.90
49236;DHT22;35067;48.134;8.378;2023-04-24T03:37:28;8.10;99.90
49236;DHT22;35067;48.134;8.378;2023-04-24T03:38:29;8.00;99.90
49236;DHT22;35067;48.134;8.378;2023-04-24T03:39:30;8.00;99.90
49236;DHT22;35067;48.134;8.378;2023-04-24T03:40:31;7.90;99.90
49236;DHT22;35067;48.134;8.378;2023-04-24T03:41:33;7.90;99.90
49236;DHT22;35067;48.134;8.378;2023-04-24T03:42:35;7.90;99.90
49236;DHT22;35067;48.134;8.378;2023-04-24T03:43:35;7.90;99.90
49236;DHT22;35067;48.134;8.378;2023-04-24T03:44:37;8.00;99.90
49236;DHT22;35067;48.134;8.378;2023-04-24T03:45:38;8.00;99.90
49236;DHT22;35067;48.134;8.378;2023-04-24T03:46:40;8.00;99.90
49236;DHT22;35067;48.134;8.378;2023-04-24T03:47:40;8.00;99.90
49236;DHT22;35067;48.134;8.378;2023-04-24T03:48:42;8.10;99.90
49236;DHT22;35067;48.134;8.378;2023-04-24T03:49:43;8.10;99.90
49236;DHT22;35067;48.134;8.378;2023-04-24T03:50:44;8.10;99.90
49236;DHT22;35067;48.134;8.378;2023-04-24T03:51:46;8.20;99.90
49236;DHT22;35067;48.134;8.378;2023-04-24T03:52:47;8.20;99.90
49236;DHT22;35067;48.134;8.378;2023-04-24T03:53:49;8.10;99.90
49236;DHT22;35067;48.134;8.378;2023-04-24T03:54:50;8.00;99.90
49236;DHT22;35067;48.134;8.378;2023-04-24T03:55:52;8.00;99.90
49236;DHT22;35067;48.134;8.378;2023-04-24T03:56:53;8.00;99.90
49236;DHT22;35067;48.134;8.378;2023-04-24T03:57:54;8.00;99.90
49236;DHT22;35067;48.134;8.378;2023-04-24T03:58:55;8.00;99.90
49236;DHT22;35067;48.134;8.378;2023-04-24T03:59:58;8.00;99.90
49236;DHT22;35067;48.134;8.378;2023-04-24T04:00:58;8.00;99.90
49236;DHT22;35067;48.134;8.378;2023-04-24T04:02:01;8.00;99.90
49236;DHT22;35067;48.134;8.378;2023-04-24T04:03:01;7.90;99.90
49236;DHT22;35067;48.134;8.378;2023-04-24T04:04:03;7.90;99.90
49236;DHT22;35067;48.134;8.378;2023-04-24T04:05:04;7.90;99.90
49236;DHT22;35067;48.134;8.378;2023-04-24T04:06:05;7.80;99.90
49236;DHT22;35067;48.134;8.378;2023-04-24T04:07:06;7.80;99.90
49236;DHT22;35067;48.134;8.378;2023-04-24T04:08:12;7.70;99.90
49236;DHT22;35067;48.134;8.378;2023-04-24T04:09:13;7.70;99.90
49236;DHT22;35067;48.134;8.378;2023-04-24T04:10:13;7.80;99.90
49236;DHT22;35067;48.134;8.378;2023-04-24T04:11:14;7.80;99.90
49236;DHT22;35067;48.134;8.378;2023-04-24T04:12:15;7.80;99.90
49236;DHT22;35067;48.134;8.378;2023-04-24T04:13:17;7.80;99.90
49236;DHT22;35067;48.134;8.378;2023-04-24T04:14:19;7.80;99.90
49236;DHT22;35067;48.134;8.378;2023-04-24T04:15:21;7.90;99.90
49236;DHT22;35067;48.134;8.378;2023-04-24T04:16:22;7.90;99.90
49236;DHT22;35067;48.134;8.378;2023-04-24T04:17:23;7.80;99.90
49236;DHT22;35067;48.134;8.378;2023-04-24T04:18:24;7.80;99.90
49236;DHT22;35067;48.134;8.378;2023-04-24T04:19:25;7.80;99.90
49236;DHT22;35067;48.134;8.378;2023-04-24T04:20:26;7.90;99.90
49236;DHT22;35067;48.134;8.378;2023-04-24T04:21:26;7.90;99.90
49236;DHT22;35067;48.134;8.378;2023-04-24T04:22:27;7.90;99.90
49236;DHT22;35067;48.134;8.378;2023-04-24T04:23:28;7.90;99.90
49236;DHT22;35067;48.134;8.378;2023-04-24T04:24:28;7.90;99.90
49236;DHT22;35067;48.134;8.378;2023-04-24T04:25:29;7.90;99.90
49236;DHT22;35067;48.134;8.378;2023-04-24T04:26:30;7.80;99.90
49236;DHT22;35067;48.134;8.378;2023-04-24T04:27:32;7.30;99.90
49236;DHT22;35067;48.134;8.378;2023-04-24T04:28:35;6.90;99.90
49236;DHT22;35067;48.134;8.378;2023-04-24T04:29:36;6.60;99.90
49236;DHT22;35067;48.134;8.378;2023-04-24T04:30:36;6.30;99.90
49236;DHT22;35067;48.134;8.378;2023-04-24T04:31:38;6.00;99.90
49236;DHT22;35067;48.134;8.378;2023-04-24T04:32:39;5.80;99.90
49236;DHT22;35067;48.134;8.378;2023-04-24T04:33:39;5.70;99.90
49236;DHT22;35067;48.134;8.378;2023-04-24T04:34:40;5.60;99.90
49236;DHT22;35067;48.134;8.378;2023-04-24T04:35:41;5.60;99.90
49236;DHT22;35067;48.134;8.378;2023-04-24T04:36:42;5.60;99.90
49236;DHT22;35067;48.134;8.378;2023-04-24T04:37:44;5.60;99.90
49236;DHT22;35067;48.134;8.378;2023-04-24T04:38:45;5.50;99.90
49236;DHT22;35067;48.134;8.378;2023-04-24T04:39:46;5.50;99.90
49236;DHT22;35067;48.134;8.378;2023-04-24T04:40:47;5.50;99.90
49236;DHT22;35067;48.134;8.378;2023-04-24T04:41:47;5.50;99.90
49236;DHT22;35067;48.134;8.378;2023-04-24T04:42:49;5.40;99.90
49236;DHT22;35067;48.134;8.378;2023-04-24T04:43:54;5.50;99.90
49236;DHT22;35067;48.134;8.378;2023-04-24T04:44:55;5.50;99.90
49236;DHT22;35067;48.134;8.378;2023-04-24T04:45:58;5.40;99.90
49236;DHT22;35067;48.134;8.378;2023-04-24T04:46:59;5.40;99.90
49236;DHT22;35067;48.134;8.378;2023-04-24T04:48:01;5.50;99.90
49236;DHT22;35067;48.134;8.378;2023-04-24T04:49:03;5.40;99.90
49236;DHT22;35067;48.134;8.378;2023-04-24T04:50:04;5.50;99.90
49236;DHT22;35067;48.134;8.378;2023-04-24T04:51:05;5.60;99.90
49236;DHT22;35067;48.134;8.378;2023-04-24T04:52:06;5.70;99.90
49236;DHT22;35067;48.134;8.378;2023-04-24T04:53:07;5.70;99.90
49236;DHT22;35067;48.134;8.378;2023-04-24T04:54:08;5.70;99.90
49236;DHT22;35067;48.134;8.378;2023-04-24T04:55:09;5.70;99.90
49236;DHT22;35067;48.134;8.378;2023-04-24T04:56:09;5.80;99.90
49236;DHT22;35067;48.134;8.378;2023-04-24T04:57:10;5.80;99.90
49236;DHT22;35067;48.134;8.378;2023-04-24T04:58:12;5.90;99.90
49236;DHT22;35067;48.134;8.378;2023-04-24T04:59:13;5.90;99.90
49236;DHT22;35067;48.134;8.378;2023-04-24T05:00:15;6.00;99.90
49236;DHT22;35067;48.134;8.378;2023-04-24T05:01:16;6.00;99.90
49236;DHT22;35067;48.134;8.378;2023-04-24T05:02:17;6.10;99.90
49236;DHT22;35067;48.134;8.378;2023-04-24T05:03:18;6.00;99.90
49236;DHT22;35067;48.134;8.378;2023-04-24T05:04:18;6.00;99.90
49236;DHT22;35067;48.134;8.378;2023-04-24T05:05:20;6.00;99.90
49236;DHT22;35067;48.134;8.378;2023-04-24T05:06:21;6.00;99.90
49236;DHT22;35067;48.134;8.378;2023-04-24T05:07:22;6.00;99.90
49236;DHT22;35067;48.134;8.378;2023-04-24T05:08:23;6.00;99.90
49236;DHT22;35067;48.134;8.378;2023-04-24T05:09:24;6.00;99.90
49236;DHT22;35067;48.134;8.378;2023-04-24T05:10:27;6.10;99.90
49236;DHT22;35067;48.134;8.378;2023-04-24T05:11:28;6.10;99.90
49236;DHT22;35067;48.134;8.378;2023-04-24T05:12:29;6.20;99.90
49236;DHT22;35067;48.134;8.378;2023-04-24T05:13:31;6.20;99.90
49236;DHT22;35067;48.134;8.378;2023-04-24T05:14:31;6.30;99.90
49236;DHT22;35067;48.134;8.378;2023-04-24T05:15:32;6.40;99.90
49236;DHT22;35067;48.134;8.378;2023-04-24T05:16:33;6.40;99.90
49236;DHT22;35067;48.134;8.378;2023-04-24T05:17:34;6.50;99.90
49236;DHT22;35067;48.134;8.378;2023-04-24T05:18:35;6.40;99.90
49236;DHT22;35067;48.134;8.378;2023-04-24T05:19:36;6.50;99.90
49236;DHT22;35067;48.134;8.378;2023-04-24T05:20:38;6.60;99.90
49236;DHT22;35067;48.134;8.378;2023-04-24T05:21:42;6.70;99.90
49236;DHT22;35067;48.134;8.378;2023-04-24T05:22:43;6.70;99.90
49236;DHT22;35067;48.134;8.378;2023-04-24T05:23:45;6.70;99.90
49236;DHT22;35067;48.134;8.378;2023-04-24T05:24:46;6.90;99.90
49236;DHT22;35067;48.134;8.378;2023-04-24T05:25:48;7.00;99.90
49236;DHT22;35067;48.134;8.378;2023-04-24T05:26:48;7.00;99.90
49236;DHT22;35067;48.134;8.378;2023-04-24T05:27:49;7.10;99.90
49236;DHT22;35067;48.134;8.378;2023-04-24T05:28:50;7.10;99.90
49236;DHT22;35067;48.134;8.378;2023-04-24T05:29:51;7.10;99.90
49236;DHT22;35067;48.134;8.378;2023-04-24T05:30:51;7.20;99.90
49236;DHT22;35067;48.134;8.378;2023-04-24T05:31:52;7.30;99.90
49236;DHT22;35067;48.134;8.378;2023-04-24T05:32:53;7.40;99.90
49236;DHT22;35067;48.134;8.378;2023-04-24T05:33:55;7.50;99.90
49236;DHT22;35067;48.134;8.378;2023-04-24T05:34:56;7.70;99.90
49236;DHT22;35067;48.134;8.378;2023-04-24T05:35:56;7.80;99.90
49236;DHT22;35067;48.134;8.378;2023-04-24T05:36:58;7.80;99.90
49236;DHT22;35067;48.134;8.378;2023-04-24T05:37:58;8.00;99.90
49236;DHT22;35067;48.134;8.378;2023-04-24T05:38:59;8.00;99.90
49236;DHT22;35067;48.134;8.378;2023-04-24T05:40:00;8.10;99.90
49236;DHT22;35067;48.134;8.378;2023-04-24T05:41:00;8.20;99.90
49236;DHT22;35067;48.134;8.378;2023-04-24T05:42:01;8.20;99.90
49236;DHT22;35067;48.134;8.378;2023-04-24T05:43:04;8.30;99.90
49236;DHT22;35067;48.134;8.378;2023-04-24T05:44:05;8.40;99.90
49236;DHT22;35067;48.134;8.378;2023-04-24T05:45:07;8.50;99.90
49236;DHT22;35067;48.134;8.378;2023-04-24T05:46:08;8.50;99.90
49236;DHT22;35067;48.134;8.378;2023-04-24T05:47:08;8.40;99.90
49236;DHT22;35067;48.134;8.378;2023-04-24T05:48:09;8.50;99.90
49236;DHT22;35067;48.134;8.378;2023-04-24T05:49:11;8.50;99.90
49236;DHT22;35067;48.134;8.378;2023-04-24T05:50:13;8.50;99.90
49236;DHT22;35067;48.134;8.378;2023-04-24T05:51:13;8.50;99.90
49236;DHT22;35067;48.134;8.378;2023-04-24T05:52:16;8.40;99.90
49236;DHT22;35067;48.134;8.378;2023-04-24T05:53:16;8.40;99.90
49236;DHT22;35067;48.134;8.378;2023-04-24T05:54:17;8.50;99.90
49236;DHT22;35067;48.134;8.378;2023-04-24T05:55:18;8.70;99.90
49236;DHT22;35067;48.134;8.378;2023-04-24T05:56:20;8.70;99.90
49236;DHT22;35067;48.134;8.378;2023-04-24T05:57:21;8.80;99.90
49236;DHT22;35067;48.134;8.378;2023-04-24T05:58:22;8.80;99.90
49236;DHT22;35067;48.134;8.378;2023-04-24T05:59:23;8.70;99.90
49236;DHT22;35067;48.134;8.378;2023-04-24T06:00:24;8.70;99.90
49236;DHT22;35067;48.134;8.378;2023-04-24T06:01:25;8.70;99.90
49236;DHT22;35067;48.134;8.378;2023-04-24T06:02:26;8.80;99.90
49236;DHT22;35067;48.134;8.378;2023-04-24T06:03:27;8.80;99.90
49236;DHT22;35067;48.134;8.378;2023-04-24T06:04:28;8.80;99.90
49236;DHT22;35067;48.134;8.378;2023-04-24T06:05:29;8.80;99.90
49236;DHT22;35067;48.134;8.378;2023-04-24T06:06:30;8.60;99.90
49236;DHT22;35067;48.134;8.378;2023-04-24T06:07:32;8.40;99.90
49236;DHT22;35067;48.134;8.378;2023-04-24T06:08:34;8.20;99.90
49236;DHT22;35067;48.134;8.378;2023-04-24T06:09:35;8.00;99.90
49236;DHT22;35067;48.134;8.378;2023-04-24T06:10:36;7.80;99.90
49236;DHT22;35067;48.134;8.378;2023-04-24T06:11:37;7.50;99.90
49236;DHT22;35067;48.134;8.378;2023-04-24T06:12:38;7.40;99.90
49236;DHT22;35067;48.134;8.378;2023-04-24T06:13:38;7.10;99.90
49236;DHT22;35067;48.134;8.378;2023-04-24T06:14:39;7.00;99.90
49236;DHT22;35067;48.134;8.378;2023-04-24T06:15:40;6.90;99.90
49236;DHT22;35067;48.134;8.378;2023-04-24T06:16:42;6.80;99.90
49236;DHT22;35067;48.134;8.378;2023-04-24T06:17:44;6.80;99.90
49236;DHT22;35067;48.134;8.378;2023-04-24T06:18:45;6.60;99.90
49236;DHT22;35067;48.134;8.378;2023-04-24T06:19:47;6.60;99.90
49236;DHT22;35067;48.134;8.378;2023-04-24T06:20:48;6.50;99.90
49236;DHT22;35067;48.134;8.378;2023-04-24T06:21:48;6.40;99.90
49236;DHT22;35067;48.134;8.378;2023-04-24T06:22:49;6.50;99.90
49236;DHT22;35067;48.134;8.378;2023-04-24T06:23:50;6.60;99.90
49236;DHT22;35067;48.134;8.378;2023-04-24T06:24:51;6.50;99.90
49236;DHT22;35067;48.134;8.378;2023-04-24T06:25:52;6.60;99.90
49236;DHT22;35067;48.134;8.378;2023-04-24T06:26:52;6.60;99.90
49236;DHT22;35067;48.134;8.378;2023-04-24T06:27:54;6.60;99.90
49236;DHT22;35067;48.134;8.378;2023-04-24T06:28:55;6.80;99.90
49236;DHT22;35067;48.134;8.378;2023-04-24T06:29:56;6.90;99.90
49236;DHT22;35067;48.134;8.378;2023-04-24T06:30:56;7.00;99.90
49236;DHT22;35067;48.134;8.378;2023-04-24T06:31:58;6.90;99.90
49236;DHT22;35067;48.134;8.378;2023-04-24T06:33:00;6.90;99.90
49236;DHT22;35067;48.134;8.378;2023-04-24T06:34:01;7.00;99.90